sensor_id;sensor_type;location;lat;lon;timestamp;temperature;humidity
14471;DHT22;7321;50.802;4.336;2023-09-30T00:02:14;15.40;99.90
14471;DHT22;7321;50.802;4.336;2023-09-30T00:04:40;15.50;99.90
14471;DHT22;7321;50.802;4.336;2023-09-30T00:07:06;15.60;99.90
14471;DHT22;7321;50.802;4.336;2023-09-30T00:09:32;15.60;99.90
14471;DHT22;7321;50.802;4.336;2023-09-30T00:11:58;15.60;99.90
14471;DHT22;7321;50.802;4.336;2023-09-30T00:14:25;15.60;99.90
14471;DHT22;7321;50.802;4.336;2023-09-30T00:16:51;15.70;99.90
14471;DHT22;7321;50.802;4.336;2023-09-30T00:19:17;15.70;99.90
14471;DHT22;7321;50.802;4.336;2023-09-30T00:21:43;15.60;99.90
14471;DHT22;7321;50.802;4.336;2023-09-30T00:24:09;15.60;99.90
14471;DHT22;7321;50.802;4.336;2023-09-30T00:26:35;15.60;99.90
14471;DHT22;7321;50.802;4.336;2023-09-30T00:29:01;15.60;99.90
14471;DHT22;7321;50.802;4.336;2023-09-30T00:31:30;15.60;99.90
14471;DHT22;7321;50.802;4.336;2023-09-30T00:33:57;15.60;99.90
14471;DHT22;7321;50.802;4.336;2023-09-30T00:36:23;15.50;99.90
14471;DHT22;7321;50.802;4.336;2023-09-30T00:38:48;15.50;99.90
14471;DHT22;7321;50.802;4.336;2023-09-30T00:41:14;15.50;99.90
14471;DHT22;7321;50.802;4.336;2023-09-30T00:43:40;15.40;99.90
14471;DHT22;7321;50.802;4.336;2023-09-30T00:46:25;15.40;99.90
14471;DHT22;7321;50.802;4.336;2023-09-30T00:48:53;15.40;99.90
14471;DHT22;7321;50.802;4.336;2023-09-30T00:51:19;15.40;99.90
14471;DHT22;7321;50.802;4.336;2023-09-30T00:53:45;15.40;99.90
14471;DHT22;7321;50.802;4.336;2023-09-30T00:56:11;15.40;99.90
14471;DHT22;7321;50.802;4.336;2023-09-30T00:58:38;15.40;99.90
14471;DHT22;7321;50.802;4.336;2023-09-30T01:01:04;15.40;99.90
14471;DHT22;7321;50.802;4.336;2023-09-30T01:03:31;15.40;99.90
14471;DHT22;7321;50.802;4.336;2023-09-30T01:05:57;15.40;99.90
14471;DHT22;7321;50.802;4.336;2023-09-30T01:08:23;15.30;99.90
14471;DHT22;7321;50.802;4.336;2023-09-30T01:10:49;15.20;99.90
14471;DHT22;7321;50.802;4.336;2023-09-30T01:13:16;15.30;99.90
14471;DHT22;7321;50.802;4.336;2023-09-30T01:15:42;15.30;99.90
14471;DHT22;7321;50.802;4.336;2023-09-30T01:18:08;15.40;99.90
14471;DHT22;7321;50.802;4.336;2023-09-30T01:20:34;15.40;99.90
14471;DHT22;7321;50.802;4.336;2023-09-30T01:23:01;15.40;99.90
14471;DHT22;7321;50.802;4.336;2023-09-30T01:25:27;15.40;99.90
14471;DHT22;7321;50.802;4.336;2023-09-30T01:27:53;15.40;99.90
14471;DHT22;7321;50.802;4.336;2023-09-30T01:30:19;15.50;99.90
14471;DHT22;7321;50.802;4.336;2023-09-30T01:32:48;15.50;99.90
14471;DHT22;7321;50.802;4.336;2023-09-30T01:35:14;15.40;99.90
14471;DHT22;7321;50.802;4.336;2023-09-30T01:37:40;15.50;99.90
14471;DHT22;7321;50.802;4.336;2023-09-30T01:40:06;15.40;99.90
14471;DHT22;7321;50.802;4.336;2023-09-30T01:42:34;15.40;99.90
14471;DHT22;7321;50.802;4.336;2023-09-30T01:45:00;15.40;99.90
14471;DHT22;7321;50.802;4.336;2023-09-30T01:47:26;15.40;99.90
14471;DHT22;7321;50.802;4.336;2023-09-30T01:49:51;15.40;99.90
14471;DHT22;7321;50.802;4.336;2023-09-30T01:52:17;15.40;99.90
14471;DHT22;7321;50.802;4.336;2023-09-30T01:54:43;15.30;99.90
14471;DHT22;7321;50.802;4.336;2023-09-30T01:57:09;15.40;99.90
14471;DHT22;7321;50.802;4.336;2023-09-30T01:59:35;15.40;99.90
14471;DHT22;7321;50.802;4.336;2023-09-30T02:02:01;15.40;99.90
14471;DHT22;7321;50.802;4.336;2023-09-30T02:04:27;15.40;99.90
14471;DHT22;7321;50.802;4.336;2023-09-30T02:06:59;15.30;99.90
14471;DHT22;7321;50.802;4.336;2023-09-30T02:09:25;15.40;99.90
14471;DHT22;7321;50.802;4.336;2023-09-30T02:11:51;15.40;99.90
14471;DHT22;7321;50.802;4.336;2023-09-30T02:14:17;15.40;99.90
14471;DHT22;7321;50.802;4.336;2023-09-30T02:16:43;15.40;99.90
14471;DHT22;7321;50.802;4.336;2023-09-30T02:19:09;15.40;99.90
14471;DHT22;7321;50.802;4.336;2023-09-30T02:21:36;15.30;99.90
14471;DHT22;7321;50.802;4.336;2023-09-30T02:24:02;15.40;99.90
14471;DHT22;7321;50.802;4.336;2023-09-30T02:26:28;15.30;99.90
14471;DHT22;7321;50.802;4.336;2023-09-30T02:28:54;15.30;99.90
14471;DHT22;7321;50.802;4.336;2023-09-30T02:31:20;15.30;99.90
14471;DHT22;7321;50.802;4.336;2023-09-30T02:33:46;15.30;99.90
14471;DHT22;7321;50.802;4.336;2023-09-30T02:36:12;15.30;99.90
14471;DHT22;7321;50.802;4.336;2023-09-30T02:38:38;15.20;99.90
14471;DHT22;7321;50.802;4.336;2023-09-30T02:41:05;15.20;99.90
14471;DHT22;7321;50.802;4.336;2023-09-30T02:43:31;15.20;99.90
14471;DHT22;7321;50.802;4.336;2023-09-30T02:45:57;15.20;99.90
14471;DHT22;7321;50.802;4.336;2023-09-30T02:48:23;15.20;99.90
14471;DHT22;7321;50.802;4.336;2023-09-30T02:50:48;15.10;99.90
14471;DHT22;7321;50.802;4.336;2023-09-30T02:53:14;15.10;99.90
14471;DHT22;7321;50.802;4.336;2023-09-30T02:55:43;15.00;99.90
14471;DHT22;7321;50.802;4.336;2023-09-30T02:58:09;14.90;99.90
14471;DHT22;7321;50.802;4.336;2023-09-30T03:00:36;14.90;99.90
14471;DHT22;7321;50.802;4.336;2023-09-30T03:03:03;15.00;99.90
14471;DHT22;7321;50.802;4.336;2023-09-30T03:05:30;15.10;99.90
14471;DHT22;7321;50.802;4.336;2023-09-30T03:07:59;15.10;99.90
14471;DHT22;7321;50.802;4.336;2023-09-30T03:10:26;15.00;99.90
14471;DHT22;7321;50.802;4.336;2023-09-30T03:12:53;15.10;99.90
14471;DHT22;7321;50.802;4.336;2023-09-30T03:15:20;15.00;99.90
14471;DHT22;7321;50.802;4.336;2023-09-30T03:17:46;15.00;99.90
14471;DHT22;7321;50.802;4.336;2023-09-30T03:20:12;15.00;99.90
14471;DHT22;7321;50.802;4.336;2023-09-30T03:22:41;15.10;99.90
14471;DHT22;7321;50.802;4.336;2023-09-30T03:25:09;15.10;99.90
14471;DHT22;7321;50.802;4.336;2023-09-30T03:27:35;15.00;99.90
14471;DHT22;7321;50.802;4.336;2023-09-30T03:30:05;14.80;99.90
14471;DHT22;7321;50.802;4.336;2023-09-30T03:32:31;14.80;99.90
14471;DHT22;7321;50.802;4.336;2023-09-30T03:35:02;14.80;99.90
14471;DHT22;7321;50.802;4.336;2023-09-30T03:37:28;14.90;99.90
14471;DHT22;7321;50.802;4.336;2023-09-30T03:39:54;14.80;99.90
14471;DHT22;7321;50.802;4.336;2023-09-30T03:42:20;14.80;99.90
14471;DHT22;7321;50.802;4.336;2023-09-30T03:44:47;14.90;99.90
14471;DHT22;7321;50.802;4.336;2023-09-30T03:47:15;14.90;99.90
14471;DHT22;7321;50.802;4.336;2023-09-30T03:49:42;14.90;99.90
14471;DHT22;7321;50.802;4.336;2023-09-30T03:52:11;14.90;99.90
14471;DHT22;7321;50.802;4.336;2023-09-30T03:54:37;14.80;99.90
14471;DHT22;7321;50.802;4.336;2023-09-30T03:57:03;14.80;99.90
14471;DHT22;7321;50.802;4.336;2023-09-30T03:59:30;14.90;99.90
14471;DHT22;7321;50.802;4.336;2023-09-30T04:01:56;14.80;99.90
14471;DHT22;7321;50.802;4.336;2023-09-30T04:04:23;14.80;99.90
14471;DHT22;7321;50.802;4.336;2023-09-30T04:06:51;14.80;99.90
14471;DHT22;7321;50.802;4.336;2023-09-30T04:09:17;14.80;99.90
14471;DHT22;7321;50.802;4.336;2023-09-30T04:11:43;14.80;99.90
14471;DHT22;7321;50.802;4.336;2023-09-30T04:14:10;14.80;99.90
14471;DHT22;7321;50.802;4.336;2023-09-30T04:16:38;14.80;99.90
14471;DHT22;7321;50.802;4.336;2023-09-30T04:19:04;14.60;99.90
14471;DHT22;7321;50.802;4.336;2023-09-30T04:21:33;14.60;99.90
14471;DHT22;7321;50.802;4.336;2023-09-30T04:24:00;14.70;99.90
14471;DHT22;7321;50.802;4.336;2023-09-30T04:26:26;14.70;99.90
14471;DHT22;7321;50.802;4.336;2023-09-30T04:28:52;14.60;99.90
14471;DHT22;7321;50.802;4.336;2023-09-30T04:31:19;14.60;99.90
14471;DHT22;7321;50.802;4.336;2023-09-30T04:33:48;14.60;99.90
14471;DHT22;7321;50.802;4.336;2023-09-30T04:36:14;14.60;99.90
14471;DHT22;7321;50.802;4.336;2023-09-30T04:38:39;14.50;99.90
14471;DHT22;7321;50.802;4.336;2023-09-30T04:41:05;14.50;99.90
14471;DHT22;7321;50.802;4.336;2023-09-30T04:43:33;14.50;99.90
14471;DHT22;7321;50.802;4.336;2023-09-30T04:46:00;14.60;99.90
14471;DHT22;7321;50.802;4.336;2023-09-30T04:48:27;14.60;99.90
14471;DHT22;7321;50.802;4.336;2023-09-30T04:50:53;14.50;99.90
14471;DHT22;7321;50.802;4.336;2023-09-30T04:53:21;14.50;99.90
14471;DHT22;7321;50.802;4.336;2023-09-30T04:55:49;14.50;99.90
14471;DHT22;7321;50.802;4.336;2023-09-30T04:58:16;14.50;99.90
14471;DHT22;7321;50.802;4.336;2023-09-30T05:00:42;14.60;99.90
14471;DHT22;7321;50.802;4.336;2023-09-30T05:03:08;14.60;99.90
14471;DHT22;7321;50.802;4.336;2023-09-30T05:05:34;14.40;99.90
14471;DHT22;7321;50.802;4.336;2023-09-30T05:08:01;14.30;99.90
14471;DHT22;7321;50.802;4.336;2023-09-30T05:10:27;14.40;99.90
14471;DHT22;7321;50.802;4.336;2023-09-30T05:12:55;14.40;99.90
14471;DHT22;7321;50.802;4.336;2023-09-30T05:15:21;14.40;99.90
14471;DHT22;7321;50.802;4.336;2023-09-30T05:17:48;14.40;99.90
14471;DHT22;7321;50.802;4.336;2023-09-30T05:20:15;14.50;99.90
14471;DHT22;7321;50.802;4.336;2023-09-30T05:22:45;14.50;99.90
14471;DHT22;7321;50.802;4.336;2023-09-30T05:25:12;14.50;99.90
14471;DHT22;7321;50.802;4.336;2023-09-30T05:27:38;14.50;99.90
14471;DHT22;7321;50.802;4.336;2023-09-30T05:30:05;14.40;99.90
14471;DHT22;7321;50.802;4.336;2023-09-30T05:32:32;14.50;99.90
14471;DHT22;7321;50.802;4.336;2023-09-30T05:34:59;14.50;99.90
14471;DHT22;7321;50.802;4.336;2023-09-30T05:37:28;14.50;99.90
14471;DHT22;7321;50.802;4.336;2023-09-30T05:39:54;14.50;99.90
14471;DHT22;7321;50.802;4.336;2023-09-30T05:42:20;14.50;99.90
14471;DHT22;7321;50.802;4.336;2023-09-30T05:44:45;14.50;99.90
14471;DHT22;7321;50.802;4.336;2023-09-30T05:47:11;14.50;99.90
14471;DHT22;7321;50.802;4.336;2023-09-30T05:49:37;14.50;99.90
14471;DHT22;7321;50.802;4.336;2023-09-30T05:52:04;14.50;99.90
14471;DHT22;7321;50.802;4.336;2023-09-30T05:54:30;14.50;99.90
14471;DHT22;7321;50.802;4.336;2023-09-30T05:56:56;14.50;99.90
14471;DHT22;7321;50.802;4.336;2023-09-30T05:59:22;14.50;99.90
14471;DHT22;7321;50.802;4.336;2023-09-30T06:01:51;14.50;99.90
14471;DHT22;7321;50.802;4.336;2023-09-30T06:04:17;14.50;99.90
14471;DHT22;7321;50.802;4.336;2023-09-30T06:06:43;14.50;99.90
14471;DHT22;7321;50.802;4.336;2023-09-30T06:09:09;14.50;99.90
14471;DHT22;7321;50.802;4.336;2023-09-30T06:11:35;14.60;99.90
14471;DHT22;7321;50.802;4.336;2023-09-30T06:14:01;14.60;99.90
14471;DHT22;7321;50.802;4.336;2023-09-30T06:16:28;14.60;99.90
14471;DHT22;7321;50.802;4.336;2023-09-30T06:18:55;14.70;99.90
14471;DHT22;7321;50.802;4.336;2023-09-30T06:21:21;14.70;99.90
14471;DHT22;7321;50.802;4.336;2023-09-30T06:23:50;14.70;99.90
14471;DHT22;7321;50.802;4.336;2023-09-30T06:26:19;14.70;99.90
14471;DHT22;7321;50.802;4.336;2023-09-30T06:28:47;14.70;99.90
14471;DHT22;7321;50.802;4.336;2023-09-30T06:31:13;14.60;99.90
14471;DHT22;7321;50.802;4.336;2023-09-30T06:33:39;14.60;99.90
14471;DHT22;7321;50.802;4.336;2023-09-30T06:36:12;14.70;99.90
14471;DHT22;7321;50.802;4.336;2023-09-30T06:38:43;14.70;99.90
14471;DHT22;7321;50.802;4.336;2023-09-30T06:41:09;14.70;99.90
14471;DHT22;7321;50.802;4.336;2023-09-30T06:43:41;14.90;99.90
14471;DHT22;7321;50.802;4.336;2023-09-30T06:46:07;14.90;99.90
14471;DHT22;7321;50.802;4.336;2023-09-30T06:48:35;14.90;99.90
14471;DHT22;7321;50.802;4.336;2023-09-30T06:51:01;15.00;99.90
14471;DHT22;7321;50.802;4.336;2023-09-30T06:53:27;15.10;99.90
14471;DHT22;7321;50.802;4.336;2023-09-30T06:55:53;15.20;99.90
14471;DHT22;7321;50.802;4.336;2023-09-30T06:58:19;15.20;99.90
14471;DHT22;7321;50.802;4.336;2023-09-30T07:00:52;15.10;99.90
14471;DHT22;7321;50.802;4.336;2023-09-30T07:03:21;15.30;99.90
14471;DHT22;7321;50.802;4.336;2023-09-30T07:05:47;15.40;99.90
14471;DHT22;7321;50.802;4.336;2023-09-30T07:08:16;15.40;99.90
14471;DHT22;7321;50.802;4.336;2023-09-30T07:10:44;15.50;99.90
14471;DHT22;7321;50.802;4.336;2023-09-30T07:13:10;15.60;99.90
14471;DHT22;7321;50.802;4.336;2023-09-30T07:15:36;15.60;99.90
14471;DHT22;7321;50.802;4.336;2023-09-30T07:18:02;15.60;99.90
14471;DHT22;7321;50.802;4.336;2023-09-30T07:20:28;15.50;99.90
14471;DHT22;7321;50.802;4.336;2023-09-30T07:22:59;15.60;99.90
14471;DHT22;7321;50.802;4.336;2023-09-30T07:25:26;15.60;99.90
14471;DHT22;7321;50.802;4.336;2023-09-30T07:27:52;15.70;99.90
14471;DHT22;7321;50.802;4.336;2023-09-30T07:30:18;15.80;99.90
14471;DHT22;7321;50.802;4.336;2023-09-30T07:32:45;15.70;99.90
14471;DHT22;7321;50.802;4.336;2023-09-30T07:35:12;15.70;99.90
14471;DHT22;7321;50.802;4.336;2023-09-30T07:37:39;15.80;99.90
14471;DHT22;7321;50.802;4.336;2023-09-30T07:40:06;15.80;99.90
14471;DHT22;7321;50.802;4.336;2023-09-30T07:42:32;16.00;99.90
14471;DHT22;7321;50.802;4.336;2023-09-30T07:44:59;15.90;99.90
14471;DHT22;7321;50.802;4.336;2023-09-30T07:47:24;15.90;99.90
14471;DHT22;7321;50.802;4.336;2023-09-30T07:49:50;16.00;99.90
14471;DHT22;7321;50.802;4.336;2023-09-30T07:52:16;15.90;99.90
14471;DHT22;7321;50.802;4.336;2023-09-30T07:54:42;16.00;99.90
14471;DHT22;7321;50.802;4.336;2023-09-30T07:57:08;16.00;99.90
14471;DHT22;7321;50.802;4.336;2023-09-30T07:59:34;16.10;99.90
14471;DHT22;7321;50.802;4.336;2023-09-30T08:02:01;16.20;99.90
14471;DHT22;7321;50.802;4.336;2023-09-30T08:04:27;16.30;99.90
14471;DHT22;7321;50.802;4.336;2023-09-30T08:06:53;16.40;99.90
14471;DHT22;7321;50.802;4.336;2023-09-30T08:09:19;16.30;99.90
14471;DHT22;7321;50.802;4.336;2023-09-30T08:11:44;16.40;99.90
14471;DHT22;7321;50.802;4.336;2023-09-30T08:14:10;16.50;99.90
14471;DHT22;7321;50.802;4.336;2023-09-30T08:16:37;16.60;99.90
14471;DHT22;7321;50.802;4.336;2023-09-30T08:19:03;16.80;99.90
14471;DHT22;7321;50.802;4.336;2023-09-30T08:21:29;16.60;99.90
14471;DHT22;7321;50.802;4.336;2023-09-30T08:23:59;16.60;99.90
14471;DHT22;7321;50.802;4.336;2023-09-30T08:26:25;16.70;99.90
14471;DHT22;7321;50.802;4.336;2023-09-30T08:28:51;16.90;99.90
14471;DHT22;7321;50.802;4.336;2023-09-30T08:31:17;16.90;99.90
14471;DHT22;7321;50.802;4.336;2023-09-30T08:33:45;17.10;99.90
14471;DHT22;7321;50.802;4.336;2023-09-30T08:36:20;17.30;99.90
14471;DHT22;7321;50.802;4.336;2023-09-30T08:39:01;17.30;99.90
14471;DHT22;7321;50.802;4.336;2023-09-30T08:41:38;17.40;99.90
14471;DHT22;7321;50.802;4.336;2023-09-30T08:44:13;17.50;99.90
14471;DHT22;7321;50.802;4.336;2023-09-30T08:46:46;17.50;99.90
14471;DHT22;7321;50.802;4.336;2023-09-30T08:49:13;17.70;99.90
14471;DHT22;7321;50.802;4.336;2023-09-30T08:51:43;18.00;99.90
14471;DHT22;7321;50.802;4.336;2023-09-30T08:57:00;17.90;99.90
14471;DHT22;7321;50.802;4.336;2023-09-30T08:59:29;17.90;99.90
14471;DHT22;7321;50.802;4.336;2023-09-30T09:01:55;18.00;99.90
14471;DHT22;7321;50.802;4.336;2023-09-30T09:04:24;17.90;99.90
14471;DHT22;7321;50.802;4.336;2023-09-30T09:07:02;18.00;99.90
14471;DHT22;7321;50.802;4.336;2023-09-30T09:09:28;18.10;99.90
14471;DHT22;7321;50.802;4.336;2023-09-30T09:11:54;18.40;99.90
14471;DHT22;7321;50.802;4.336;2023-09-30T09:14:36;18.50;99.90
14471;DHT22;7321;50.802;4.336;2023-09-30T09:17:03;18.40;99.90
14471;DHT22;7321;50.802;4.336;2023-09-30T09:19:31;18.10;99.90
14471;DHT22;7321;50.802;4.336;2023-09-30T09:22:03;18.00;99.90
14471;DHT22;7321;50.802;4.336;2023-09-30T09:27:18;18.10;99.90
14471;DHT22;7321;50.802;4.336;2023-09-30T09:29:45;18.20;99.90
14471;DHT22;7321;50.802;4.336;2023-09-30T09:32:18;18.50;99.90
14471;DHT22;7321;50.802;4.336;2023-09-30T09:35:02;18.60;99.90
14471;DHT22;7321;50.802;4.336;2023-09-30T09:37:32;18.80;99.90
14471;DHT22;7321;50.802;4.336;2023-09-30T09:40:01;18.70;99.90
14471;DHT22;7321;50.802;4.336;2023-09-30T09:42:33;18.90;99.90
14471;DHT22;7321;50.802;4.336;2023-09-30T09:45:04;19.00;99.90
14471;DHT22;7321;50.802;4.336;2023-09-30T09:47:34;19.00;99.90
14471;DHT22;7321;50.802;4.336;2023-09-30T09:50:03;19.10;99.90
14471;DHT22;7321;50.802;4.336;2023-09-30T09:52:35;18.80;99.90
14471;DHT22;7321;50.802;4.336;2023-09-30T09:55:02;18.40;99.90
14471;DHT22;7321;50.802;4.336;2023-09-30T09:57:31;18.10;99.90
14471;DHT22;7321;50.802;4.336;2023-09-30T09:59:57;17.90;99.90
14471;DHT22;7321;50.802;4.336;2023-09-30T10:02:24;17.80;99.90
14471;DHT22;7321;50.802;4.336;2023-09-30T10:04:51;17.70;99.90
14471;DHT22;7321;50.802;4.336;2023-09-30T10:07:28;17.70;99.90
14471;DHT22;7321;50.802;4.336;2023-09-30T10:09:55;17.90;99.90
14471;DHT22;7321;50.802;4.336;2023-09-30T10:12:24;18.00;99.90
14471;DHT22;7321;50.802;4.336;2023-09-30T10:14:52;18.50;99.90
14471;DHT22;7321;50.802;4.336;2023-09-30T10:17:17;18.60;99.90
14471;DHT22;7321;50.802;4.336;2023-09-30T10:20:06;19.00;99.90
14471;DHT22;7321;50.802;4.336;2023-09-30T10:22:32;19.20;99.90
14471;DHT22;7321;50.802;4.336;2023-09-30T10:24:59;19.50;99.90
14471;DHT22;7321;50.802;4.336;2023-09-30T10:40:49;18.20;99.90
14471;DHT22;7321;50.802;4.336;2023-09-30T10:43:38;18.30;99.90
14471;DHT22;7321;50.802;4.336;2023-09-30T10:48:53;18.60;99.90
14471;DHT22;7321;50.802;4.336;2023-09-30T10:51:19;18.70;99.90
14471;DHT22;7321;50.802;4.336;2023-09-30T10:53:50;19.00;99.90
14471;DHT22;7321;50.802;4.336;2023-09-30T10:56:22;19.00;99.90
14471;DHT22;7321;50.802;4.336;2023-09-30T10:58:50;19.30;99.90
14471;DHT22;7321;50.802;4.336;2023-09-30T11:01:23;19.50;99.90
14471;DHT22;7321;50.802;4.336;2023-09-30T11:03:57;19.70;99.90
14471;DHT22;7321;50.802;4.336;2023-09-30T11:06:24;19.90;99.90
14471;DHT22;7321;50.802;4.336;2023-09-30T11:08:58;20.00;99.90
14471;DHT22;7321;50.802;4.336;2023-09-30T11:11:45;20.20;99.90
14471;DHT22;7321;50.802;4.336;2023-09-30T11:14:30;20.50;99.90
14471;DHT22;7321;50.802;4.336;2023-09-30T11:17:01;20.60;99.90
14471;DHT22;7321;50.802;4.336;2023-09-30T11:19:46;20.60;99.90
14471;DHT22;7321;50.802;4.336;2023-09-30T11:22:13;20.90;99.90
14471;DHT22;7321;50.802;4.336;2023-09-30T11:24:41;20.80;99.90
14471;DHT22;7321;50.802;4.336;2023-09-30T11:27:07;20.70;99.90
14471;DHT22;7321;50.802;4.336;2023-09-30T11:29:34;20.90;99.90
14471;DHT22;7321;50.802;4.336;2023-09-30T11:32:00;21.10;99.90
14471;DHT22;7321;50.802;4.336;2023-09-30T11:34:34;21.40;99.90
14471;DHT22;7321;50.802;4.336;2023-09-30T11:37:01;21.30;99.90
14471;DHT22;7321;50.802;4.336;2023-09-30T11:39:29;21.10;99.90
14471;DHT22;7321;50.802;4.336;2023-09-30T11:41:56;21.20;99.90
14471;DHT22;7321;50.802;4.336;2023-09-30T11:44:24;21.60;99.90
14471;DHT22;7321;50.802;4.336;2023-09-30T11:46:55;21.80;99.90
14471;DHT22;7321;50.802;4.336;2023-09-30T11:51:58;21.70;99.90
14471;DHT22;7321;50.802;4.336;2023-09-30T11:54:35;21.70;99.90
14471;DHT22;7321;50.802;4.336;2023-09-30T11:57:07;22.10;99.90
14471;DHT22;7321;50.802;4.336;2023-09-30T11:59:37;22.30;99.90
14471;DHT22;7321;50.802;4.336;2023-09-30T12:02:03;22.50;99.90
14471;DHT22;7321;50.802;4.336;2023-09-30T12:04:31;22.60;99.90
14471;DHT22;7321;50.802;4.336;2023-09-30T12:06:57;22.70;99.90
14471;DHT22;7321;50.802;4.336;2023-09-30T12:09:23;22.90;99.90
14471;DHT22;7321;50.802;4.336;2023-09-30T12:11:52;22.70;99.90
14471;DHT22;7321;50.802;4.336;2023-09-30T12:14:22;22.10;99.90
14471;DHT22;7321;50.802;4.336;2023-09-30T12:16:48;21.80;99.90
14471;DHT22;7321;50.802;4.336;2023-09-30T12:19:19;21.90;99.90
14471;DHT22;7321;50.802;4.336;2023-09-30T12:21:46;22.00;99.90
14471;DHT22;7321;50.802;4.336;2023-09-30T12:24:14;21.60;99.90
14471;DHT22;7321;50.802;4.336;2023-09-30T12:26:49;21.30;99.90
14471;DHT22;7321;50.802;4.336;2023-09-30T12:29:20;21.30;99.90
14471;DHT22;7321;50.802;4.336;2023-09-30T12:31:48;21.20;99.90
14471;DHT22;7321;50.802;4.336;2023-09-30T12:34:15;21.20;99.90
14471;DHT22;7321;50.802;4.336;2023-09-30T12:36:41;20.80;99.90
14471;DHT22;7321;50.802;4.336;2023-09-30T12:39:08;21.10;99.90
14471;DHT22;7321;50.802;4.336;2023-09-30T12:41:44;21.20;99.90
14471;DHT22;7321;50.802;4.336;2023-09-30T12:44:10;21.30;99.90
14471;DHT22;7321;50.802;4.336;2023-09-30T12:46:37;21.40;99.90
14471;DHT22;7321;50.802;4.336;2023-09-30T12:49:05;21.70;99.90
14471;DHT22;7321;50.802;4.336;2023-09-30T12:51:32;21.90;99.90
14471;DHT22;7321;50.802;4.336;2023-09-30T12:53:58;21.80;99.90
14471;DHT22;7321;50.802;4.336;2023-09-30T12:56:24;22.00;99.90
14471;DHT22;7321;50.802;4.336;2023-09-30T12:58:50;21.90;99.90
14471;DHT22;7321;50.802;4.336;2023-09-30T13:01:16;22.10;99.90
14471;DHT22;7321;50.802;4.336;2023-09-30T13:03:46;22.30;99.90
14471;DHT22;7321;50.802;4.336;2023-09-30T13:06:12;22.40;99.90
14471;DHT22;7321;50.802;4.336;2023-09-30T13:08:39;22.30;99.90
14471;DHT22;7321;50.802;4.336;2023-09-30T13:11:04;22.40;99.90
14471;DHT22;7321;50.802;4.336;2023-09-30T13:13:32;22.50;99.90
14471;DHT22;7321;50.802;4.336;2023-09-30T13:15:59;22.50;99.90
14471;DHT22;7321;50.802;4.336;2023-09-30T13:18:25;22.60;99.90
14471;DHT22;7321;50.802;4.336;2023-09-30T13:20:51;22.70;99.90
14471;DHT22;7321;50.802;4.336;2023-09-30T13:23:20;22.60;99.90
14471;DHT22;7321;50.802;4.336;2023-09-30T13:25:46;22.40;99.90
14471;DHT22;7321;50.802;4.336;2023-09-30T13:28:13;22.50;99.90
14471;DHT22;7321;50.802;4.336;2023-09-30T13:30:39;22.60;99.90
14471;DHT22;7321;50.802;4.336;2023-09-30T13:33:05;22.70;99.90
14471;DHT22;7321;50.802;4.336;2023-09-30T13:35:31;22.40;99.90
14471;DHT22;7321;50.802;4.336;2023-09-30T13:37:57;22.60;99.90
14471;DHT22;7321;50.802;4.336;2023-09-30T13:40:23;22.50;99.90
14471;DHT22;7321;50.802;4.336;2023-09-30T13:42:49;22.30;99.90
14471;DHT22;7321;50.802;4.336;2023-09-30T13:45:15;22.20;99.90
14471;DHT22;7321;50.802;4.336;2023-09-30T13:47:44;22.40;99.90
14471;DHT22;7321;50.802;4.336;2023-09-30T13:50:10;22.70;99.90
14471;DHT22;7321;50.802;4.336;2023-09-30T13:52:37;22.40;99.90
14471;DHT22;7321;50.802;4.336;2023-09-30T13:55:03;22.00;99.90
14471;DHT22;7321;50.802;4.336;2023-09-30T13:57:30;21.90;99.90
14471;DHT22;7321;50.802;4.336;2023-09-30T13:59:56;21.90;99.90
14471;DHT22;7321;50.802;4.336;2023-09-30T14:02:22;21.80;99.90
14471;DHT22;7321;50.802;4.336;2023-09-30T14:04:51;22.10;99.90
14471;DHT22;7321;50.802;4.336;2023-09-30T14:07:19;22.40;99.90
14471;DHT22;7321;50.802;4.336;2023-09-30T14:09:45;22.50;99.90
14471;DHT22;7321;50.802;4.336;2023-09-30T14:12:10;22.60;99.90
14471;DHT22;7321;50.802;4.336;2023-09-30T14:14:37;22.60;99.90
14471;DHT22;7321;50.802;4.336;2023-09-30T14:17:03;22.70;99.90
14471;DHT22;7321;50.802;4.336;2023-09-30T14:19:40;22.60;99.90
14471;DHT22;7321;50.802;4.336;2023-09-30T14:22:14;22.50;99.90
14471;DHT22;7321;50.802;4.336;2023-09-30T14:24:40;22.70;99.90
14471;DHT22;7321;50.802;4.336;2023-09-30T14:27:06;22.60;99.90
14471;DHT22;7321;50.802;4.336;2023-09-30T14:29:33;22.80;99.90
14471;DHT22;7321;50.802;4.336;2023-09-30T14:31:59;22.60;99.90
14471;DHT22;7321;50.802;4.336;2023-09-30T14:34:25;22.60;99.90
14471;DHT22;7321;50.802;4.336;2023-09-30T14:36:51;22.50;99.90
14471;DHT22;7321;50.802;4.336;2023-09-30T14:39:18;22.40;99.90
14471;DHT22;7321;50.802;4.336;2023-09-30T14:41:44;22.50;99.90
14471;DHT22;7321;50.802;4.336;2023-09-30T14:44:10;22.50;99.90
14471;DHT22;7321;50.802;4.336;2023-09-30T14:46:40;22.50;99.90
14471;DHT22;7321;50.802;4.336;2023-09-30T14:49:06;22.60;99.90
14471;DHT22;7321;50.802;4.336;2023-09-30T14:51:36;22.50;99.90
14471;DHT22;7321;50.802;4.336;2023-09-30T14:54:05;22.30;99.90
14471;DHT22;7321;50.802;4.336;2023-09-30T14:56:31;22.40;99.90
14471;DHT22;7321;50.802;4.336;2023-09-30T14:58:57;22.50;99.90
14471;DHT22;7321;50.802;4.336;2023-09-30T15:01:23;22.50;99.90
14471;DHT22;7321;50.802;4.336;2023-09-30T15:03:49;22.60;99.90
14471;DHT22;7321;50.802;4.336;2023-09-30T15:06:15;22.50;99.90
14471;DHT22;7321;50.802;4.336;2023-09-30T15:08:41;22.20;99.90
14471;DHT22;7321;50.802;4.336;2023-09-30T15:11:12;22.30;99.90
14471;DHT22;7321;50.802;4.336;2023-09-30T15:13:40;22.30;99.90
14471;DHT22;7321;50.802;4.336;2023-09-30T15:16:17;22.30;99.90
14471;DHT22;7321;50.802;4.336;2023-09-30T15:18:44;22.30;99.90
14471;DHT22;7321;50.802;4.336;2023-09-30T15:21:11;22.40;99.90
14471;DHT22;7321;50.802;4.336;2023-09-30T15:23:37;22.40;99.90
14471;DHT22;7321;50.802;4.336;2023-09-30T15:26:03;22.30;99.90
14471;DHT22;7321;50.802;4.336;2023-09-30T15:28:29;22.00;99.90
14471;DHT22;7321;50.802;4.336;2023-09-30T15:30:56;22.00;99.90
14471;DHT22;7321;50.802;4.336;2023-09-30T15:33:24;22.00;99.90
14471;DHT22;7321;50.802;4.336;2023-09-30T15:35:50;22.10;99.90
14471;DHT22;7321;50.802;4.336;2023-09-30T15:38:16;22.00;99.90
14471;DHT22;7321;50.802;4.336;2023-09-30T15:40:56;22.00;99.90
14471;DHT22;7321;50.802;4.336;2023-09-30T15:43:29;21.80;99.90
14471;DHT22;7321;50.802;4.336;2023-09-30T15:45:55;21.90;99.90
14471;DHT22;7321;50.802;4.336;2023-09-30T15:48:21;22.10;99.90
14471;DHT22;7321;50.802;4.336;2023-09-30T15:50:48;22.20;99.90
14471;DHT22;7321;50.802;4.336;2023-09-30T15:53:14;22.30;99.90
14471;DHT22;7321;50.802;4.336;2023-09-30T15:55:40;22.40;99.90
14471;DHT22;7321;50.802;4.336;2023-09-30T15:58:07;22.40;99.90
14471;DHT22;7321;50.802;4.336;2023-09-30T16:00:39;22.50;99.90
14471;DHT22;7321;50.802;4.336;2023-09-30T16:03:06;22.30;99.90
14471;DHT22;7321;50.802;4.336;2023-09-30T16:05:33;22.40;99.90
14471;DHT22;7321;50.802;4.336;2023-09-30T16:07:59;22.50;99.90
14471;DHT22;7321;50.802;4.336;2023-09-30T16:10:28;22.50;99.90
14471;DHT22;7321;50.802;4.336;2023-09-30T16:12:54;22.50;99.90